Time;durP1;ratioP1;P1;durP2;ratioP2;P2;SDS_P1;SDS_P2;PMS_P1;PMS_P2;Temp;Humidity;BMP_temperature;BMP_pressure;BME280_temperature;BME280_humidity;BME280_pressure;Samples;Min_cycle;Max_cycle;Signal;HPM_P1;HPM_P2
2022/04/30 00:01:41;;;;;;;20.20;7.80;;;;;;;6.99;100.00;102833.75;5204987;28;20400;-69
2022/04/30 00:04:11;;;;;;;18.52;7.78;;;;;;;6.91;100.00;102827.19;5204376;28;20394;-68
2022/04/30 00:06:42;;;;;;;23.35;8.30;;;;;;;6.84;100.00;102832.03;5203936;28;20376;-68
2022/04/30 00:09:12;;;;;;;20.25;8.13;;;;;;;6.76;100.00;102828.97;5204561;28;20394;-69
2022/04/30 00:11:43;;;;;;;17.05;7.97;;;;;;;6.78;100.00;102829.75;5204593;28;20447;-67
2022/04/30 00:14:13;;;;;;;17.33;7.90;;;;;;;6.73;100.00;102826.50;5204080;28;20494;-69
2022/04/30 00:16:44;;;;;;;26.05;8.32;;;;;;;6.69;100.00;102824.97;5204592;28;20028;-69
2022/04/30 00:19:15;;;;;;;15.57;8.10;;;;;;;6.65;100.00;102829.63;5204070;28;20025;-69
2022/04/30 00:21:45;;;;;;;16.00;7.95;;;;;;;6.61;100.00;102830.75;5204276;28;20475;-69
2022/04/30 00:24:16;;;;;;;16.52;7.68;;;;;;;6.56;100.00;102831.97;5204157;28;20487;-69
2022/04/30 00:26:47;;;;;;;15.20;8.02;;;;;;;6.44;100.00;102825.59;5204145;28;20060;-69
2022/04/30 00:29:18;;;;;;;23.45;8.60;;;;;;;6.39;100.00;102825.00;5203845;28;20053;-69
2022/04/30 00:31:48;;;;;;;17.88;8.20;;;;;;;6.35;100.00;102828.78;5203749;28;20080;-69
2022/04/30 00:34:18;;;;;;;17.63;8.27;;;;;;;6.33;100.00;102833.38;5203758;28;20434;-69
2022/04/30 00:36:49;;;;;;;21.98;8.43;;;;;;;6.28;100.00;102828.31;5202213;28;20048;-67
2022/04/30 00:39:20;;;;;;;23.50;8.13;;;;;;;6.22;100.00;102836.63;5188533;28;20124;-67
2022/04/30 00:41:50;;;;;;;26.05;8.70;;;;;;;6.19;100.00;102832.34;5204125;28;20114;-69
2022/04/30 00:44:21;;;;;;;17.38;7.70;;;;;;;6.13;100.00;102834.53;5203683;28;20038;-69
2022/04/30 00:46:51;;;;;;;16.75;7.97;;;;;;;6.08;100.00;102832.13;5203998;28;20051;-69
2022/04/30 00:49:22;;;;;;;14.85;8.02;;;;;;;6.02;100.00;102819.13;5203866;28;20379;-69
2022/04/30 00:51:57;;;;;;;18.65;8.77;;;;;;;5.97;100.00;102821.19;5203711;28;20057;-69
2022/04/30 00:54:35;;;;;;;23.85;8.77;;;;;;;5.96;100.00;102816.81;5203438;28;20017;-69
2022/04/30 00:57:11;;;;;;;18.10;8.20;;;;;;;5.93;100.00;102815.22;5204002;28;20033;-69
2022/04/30 00:59:44;;;;;;;18.42;9.27;;;;;;;5.90;100.00;102819.81;5204118;28;20391;-69
2022/04/30 01:02:14;;;;;;;20.60;8.15;;;;;;;5.88;100.00;102813.72;5204243;28;20107;-68
2022/04/30 01:04:45;;;;;;;20.00;8.02;;;;;;;5.84;100.00;102821.03;5203874;28;20108;-68
2022/04/30 01:07:17;;;;;;;23.40;9.60;;;;;;;5.83;100.00;102815.78;5203623;28;20033;-68
2022/04/30 01:09:51;;;;;;;17.70;8.93;;;;;;;5.81;100.00;102823.84;5203850;28;20029;-68
2022/04/30 01:12:23;;;;;;;19.30;8.57;;;;;;;5.80;100.00;102819.47;5203920;28;20069;-68
2022/04/30 01:14:55;;;;;;;21.52;8.88;;;;;;;5.81;100.00;102823.84;5202097;28;20045;-69
2022/04/30 01:17:26;;;;;;;21.63;8.50;;;;;;;5.82;100.00;102822.03;5203669;28;20071;-69
2022/04/30 01:19:57;;;;;;;20.35;7.80;;;;;;;5.76;100.00;102822.41;5203524;28;20475;-68
2022/04/30 01:22:46;;;;;;;22.23;8.48;;;;;;;5.71;100.00;102834.16;5203873;28;20029;-68
2022/04/30 01:25:19;;;;;;;18.90;7.63;;;;;;;5.81;100.00;102821.19;5190237;28;20022;-68
2022/04/30 01:27:51;;;;;;;19.23;7.88;;;;;;;5.76;100.00;102828.59;5203690;28;20418;-69
2022/04/30 01:30:22;;;;;;;19.08;8.10;;;;;;;5.70;100.00;102824.47;5203385;28;20033;-68
2022/04/30 01:38:31;;;;;;;20.52;7.80;;;;;;;5.59;100.00;102824.22;5182723;28;20038;-68
2022/04/30 01:41:02;;;;;;;15.27;7.10;;;;;;;5.52;100.00;102821.97;5201102;28;20059;-69
2022/04/30 01:43:33;;;;;;;14.50;7.28;;;;;;;5.46;100.00;102824.03;5207885;28;20115;-67
2022/04/30 01:46:04;;;;;;;13.52;7.00;;;;;;;5.48;100.00;102825.78;5207813;28;20074;-68
2022/04/30 01:48:36;;;;;;;14.05;7.95;;;;;;;5.48;100.00;102823.09;5207625;28;20055;-68
2022/04/30 01:51:13;;;;;;;13.05;6.50;;;;;;;5.51;100.00;102825.56;5207404;28;20057;-68
2022/04/30 01:53:44;;;;;;;15.07;7.45;;;;;;;5.45;100.00;102822.31;5207445;28;20028;-68
2022/04/30 01:56:14;;;;;;;19.80;7.20;;;;;;;5.41;100.00;102822.56;5207322;28;20022;-68
2022/04/30 01:58:56;;;;;;;22.55;7.78;;;;;;;5.40;100.00;102821.72;5207458;28;20022;-69
2022/04/30 02:01:27;;;;;;;19.13;7.32;;;;;;;5.36;100.00;102817.50;5206855;28;20510;-68
2022/04/30 02:03:58;;;;;;;15.85;6.18;;;;;;;5.33;100.00;102820.34;5207196;28;20053;-68
2022/04/30 02:06:37;;;;;;;19.58;7.50;;;;;;;5.31;100.00;102814.22;5214957;28;20060;-69
2022/04/30 02:09:14;;;;;;;15.77;6.22;;;;;;;5.31;100.00;102811.56;5207225;28;20060;-68
2022/04/30 02:11:46;;;;;;;19.50;6.80;;;;;;;5.32;100.00;102815.09;5207220;28;20426;-68
2022/04/30 02:14:18;;;;;;;17.42;7.43;;;;;;;5.25;100.00;102817.22;5206638;28;20079;-69
2022/04/30 02:16:49;;;;;;;15.13;6.75;;;;;;;5.17;100.00;102806.13;5207284;28;20087;-68
2022/04/30 02:19:23;;;;;;;20.30;7.03;;;;;;;5.14;100.00;102804.50;5206798;28;20479;-68
2022/04/30 02:21:57;;;;;;;15.55;6.78;;;;;;;5.06;100.00;102814.69;5206822;28;20021;-68
2022/04/30 02:24:28;;;;;;;15.10;7.17;;;;;;;5.03;100.00;102814.03;5206511;28;20429;-68
2022/04/30 02:26:58;;;;;;;15.20;6.55;;;;;;;4.99;100.00;102817.78;5206817;28;20497;-68
2022/04/30 02:29:30;;;;;;;12.07;6.00;;;;;;;4.94;100.00;102810.91;5206671;28;20107;-68
2022/04/30 02:32:00;;;;;;;18.63;7.28;;;;;;;4.92;100.00;102809.28;5206711;28;20036;-68
2022/04/30 02:34:31;;;;;;;17.05;7.53;;;;;;;4.88;100.00;102807.72;5206724;28;20406;-69
2022/04/30 02:37:03;;;;;;;12.20;5.82;;;;;;;4.87;100.00;102812.19;5205448;28;20368;-68
2022/04/30 02:39:34;;;;;;;12.93;6.22;;;;;;;4.87;100.00;102814.84;5204485;28;20116;-69
2022/04/30 02:42:05;;;;;;;15.75;7.00;;;;;;;4.89;100.00;102812.09;5206932;28;20104;-68
2022/04/30 02:44:35;;;;;;;17.98;7.13;;;;;;;4.86;100.00;102813.09;5206075;28;20026;-70
2022/04/30 02:47:07;;;;;;;15.13;5.72;;;;;;;4.86;100.00;102809.59;5206277;28;20049;-69
2022/04/30 02:49:38;;;;;;;12.43;6.00;;;;;;;4.82;100.00;102814.22;5206271;28;20029;-69
2022/04/30 02:52:08;;;;;;;14.52;6.40;;;;;;;4.79;100.00;102809.06;5206067;28;20021;-69
2022/04/30 02:54:39;;;;;;;16.05;6.63;;;;;;;4.74;100.00;102800.47;5205994;28;20021;-68
2022/04/30 02:57:09;;;;;;;15.98;6.30;;;;;;;4.69;100.00;102799.84;5206180;28;20051;-69
2022/04/30 03:02:28;;;;;;;18.92;6.82;;;;;;;4.61;100.00;102797.56;5205943;28;20025;-68
2022/04/30 03:04:58;;;;;;;15.40;6.80;;;;;;;4.59;100.00;102798.63;5206160;28;20025;-69
2022/04/30 03:07:29;;;;;;;16.38;5.90;;;;;;;4.58;100.00;102794.25;5204846;28;20032;-68
2022/04/30 03:09:59;;;;;;;14.23;6.80;;;;;;;4.57;100.00;102795.19;5205475;28;20021;-68
2022/04/30 03:12:31;;;;;;;14.98;6.03;;;;;;;4.51;100.00;102795.47;5206149;28;20540;-68
2022/04/30 03:15:01;;;;;;;15.95;6.85;;;;;;;4.43;100.00;102795.88;5205439;28;20029;-68
2022/04/30 03:23:11;;;;;;;19.30;7.10;;;;;;;4.32;100.00;102798.25;5205911;28;20026;-69
2022/04/30 03:25:42;;;;;;;18.73;6.90;;;;;;;4.32;100.00;102800.91;5205639;28;20292;-69
2022/04/30 03:28:13;;;;;;;19.23;6.95;;;;;;;4.30;100.00;102794.78;5205497;28;20061;-69
2022/04/30 03:30:43;;;;;;;15.02;6.60;;;;;;;4.27;100.00;102794.97;5205765;28;20037;-69
2022/04/30 03:33:13;;;;;;;16.85;6.70;;;;;;;4.25;100.00;102799.47;5205344;28;20029;-69
2022/04/30 03:35:44;;;;;;;15.98;7.53;;;;;;;4.22;100.00;102792.53;5203476;28;20021;-69
2022/04/30 03:38:14;;;;;;;24.73;8.25;;;;;;;4.20;100.00;102794.38;5194488;28;20033;-69
2022/04/30 03:40:45;;;;;;;25.55;7.72;;;;;;;4.17;100.00;102791.91;5199547;28;20071;-69
2022/04/30 03:43:16;;;;;;;15.57;7.45;;;;;;;4.12;100.00;102799.25;5205185;28;20025;-69
2022/04/30 03:45:48;;;;;;;24.02;8.25;;;;;;;4.10;100.00;102795.78;5204686;28;20025;-69
2022/04/30 03:48:20;;;;;;;21.77;7.82;;;;;;;4.09;100.00;102794.94;5205296;28;20021;-69
2022/04/30 03:50:50;;;;;;;19.40;6.70;;;;;;;4.08;100.00;102789.72;5204809;28;20033;-69
2022/04/30 03:53:20;;;;;;;18.27;7.22;;;;;;;4.12;100.00;102791.28;5205212;28;20029;-69
2022/04/30 03:55:52;;;;;;;18.38;8.35;;;;;;;4.15;100.00;102797.28;5204260;28;20025;-69
2022/04/30 03:58:22;;;;;;;16.42;7.10;;;;;;;4.18;100.00;102793.63;5205071;28;20486;-69
2022/04/30 04:00:54;;;;;;;20.55;7.72;;;;;;;4.21;100.00;102798.75;5204629;28;20033;-68
2022/04/30 04:03:24;;;;;;;18.67;7.30;;;;;;;4.22;100.00;102797.84;5204571;28;20521;-68
2022/04/30 04:05:55;;;;;;;25.17;7.97;;;;;;;4.18;100.00;102792.75;5204318;28;20049;-68
2022/04/30 04:08:25;;;;;;;17.13;8.63;;;;;;;4.16;100.00;102796.34;5204168;28;20056;-69
2022/04/30 04:10:56;;;;;;;23.98;8.48;;;;;;;4.16;100.00;102800.78;5204745;28;20021;-68
2022/04/30 04:19:04;;;;;;;21.65;8.43;;;;;;;4.19;100.00;102800.66;5204389;28;20104;-69
2022/04/30 04:21:34;;;;;;;22.80;9.07;;;;;;;4.13;100.00;102811.59;5204300;28;20452;-68
2022/04/30 04:26:54;;;;;;;21.55;8.70;;;;;;;4.15;100.00;102809.69;5191662;28;20029;-68
2022/04/30 04:29:25;;;;;;;18.40;8.77;;;;;;;4.14;100.00;102813.31;5203715;28;20039;-68
2022/04/30 04:31:55;;;;;;;20.52;8.23;;;;;;;4.09;100.00;102808.22;5203575;28;20406;-68
2022/04/30 04:34:26;;;;;;;23.13;9.00;;;;;;;4.18;100.00;102816.69;5203795;28;20025;-68
2022/04/30 04:36:56;;;;;;;23.30;9.35;;;;;;;4.12;100.00;102818.69;5202431;28;20032;-68
2022/04/30 04:39:27;;;;;;;26.23;8.57;;;;;;;4.15;100.00;102818.53;5188252;28;20024;-67
2022/04/30 04:41:57;;;;;;;27.63;8.70;;;;;;;4.19;100.00;102819.25;5203811;28;20376;-67
2022/04/30 04:44:28;;;;;;;20.40;8.85;;;;;;;4.15;100.00;102815.88;5203208;28;20109;-67
2022/04/30 04:47:00;;;;;;;20.80;8.65;;;;;;;4.11;100.00;102822.28;5203731;28;20018;-67
2022/04/30 04:49:32;;;;;;;24.15;8.73;;;;;;;4.11;100.00;102822.28;5203331;28;20037;-67
2022/04/30 04:52:03;;;;;;;24.55;8.63;;;;;;;4.13;100.00;102817.75;5202974;28;20075;-67
2022/04/30 04:54:34;;;;;;;18.10;8.23;;;;;;;4.15;100.00;102829.16;5203030;28;20021;-67
2022/04/30 04:57:05;;;;;;;24.63;9.52;;;;;;;4.20;100.00;102831.59;5203042;28;20025;-68
2022/04/30 04:59:35;;;;;;;19.35;8.93;;;;;;;4.25;100.00;102829.56;5203241;28;20017;-67
2022/04/30 05:02:06;;;;;;;28.95;11.27;;;;;;;4.27;100.00;102832.16;5203054;28;20119;-67
2022/04/30 05:04:37;;;;;;;24.65;10.35;;;;;;;4.23;100.00;102834.09;5202678;28;20060;-67
2022/04/30 05:07:07;;;;;;;20.90;8.88;;;;;;;4.26;100.00;102833.06;5202934;28;20029;-67
2022/04/30 05:09:38;;;;;;;21.02;8.98;;;;;;;4.31;100.00;102839.88;5203207;28;20029;-67
2022/04/30 05:12:09;;;;;;;22.65;8.65;;;;;;;4.38;100.00;102836.00;5203066;28;20491;-67
2022/04/30 05:14:39;;;;;;;22.63;9.07;;;;;;;4.38;100.00;102837.78;5202448;28;20029;-67
2022/04/30 05:17:10;;;;;;;21.38;9.77;;;;;;;4.40;100.00;102833.25;5201567;28;20032;-67
2022/04/30 05:19:40;;;;;;;23.80;10.50;;;;;;;4.49;100.00;102840.75;5202758;28;20478;-67
2022/04/30 05:22:11;;;;;;;20.63;8.35;;;;;;;4.54;100.00;102841.38;5203048;28;20502;-67
2022/04/30 05:24:41;;;;;;;27.63;8.90;;;;;;;4.61;100.00;102839.25;5202705;28;20033;-67
2022/04/30 05:27:12;;;;;;;18.00;8.30;;;;;;;4.55;100.00;102847.56;5153332;28;1440976;-67
2022/04/30 05:29:43;;;;;;;20.55;8.50;;;;;;;4.61;100.00;102849.88;5203428;28;20030;-67
2022/04/30 05:32:14;;;;;;;18.85;7.60;;;;;;;4.72;100.00;102844.91;5203657;28;20482;-67
2022/04/30 05:34:45;;;;;;;22.70;10.75;;;;;;;4.77;100.00;102848.19;5203423;28;20086;-67
2022/04/30 05:37:16;;;;;;;21.88;7.93;;;;;;;4.96;100.00;102840.06;5200928;28;20025;-67
2022/04/30 05:39:46;;;;;;;19.80;8.60;;;;;;;5.01;100.00;102846.00;5190056;28;20075;-67
2022/04/30 05:42:17;;;;;;;25.50;8.38;;;;;;;5.14;100.00;102843.56;5203116;28;20789;-67
2022/04/30 05:44:47;;;;;;;23.02;8.68;;;;;;;5.31;100.00;102858.63;5203429;28;20021;-67
2022/04/30 05:47:19;;;;;;;20.60;9.93;;;;;;;5.50;100.00;102845.16;5202556;28;20471;-67
2022/04/30 05:49:49;;;;;;;21.48;9.02;;;;;;;5.68;100.00;102847.69;5203560;28;20026;-67
2022/04/30 05:52:20;;;;;;;21.98;9.82;;;;;;;6.34;100.00;102859.06;5203549;28;20051;-67
2022/04/30 05:54:51;;;;;;;23.83;8.77;;;;;;;7.18;100.00;102860.19;5203147;28;20026;-67
2022/04/30 05:57:21;;;;;;;17.95;8.45;;;;;;;7.78;100.00;102853.69;5203474;28;20029;-67
2022/04/30 05:59:52;;;;;;;19.48;7.35;;;;;;;8.71;100.00;102855.53;5203498;28;20104;-67
2022/04/30 06:02:22;;;;;;;13.68;7.65;;;;;;;9.11;100.00;102851.91;5203175;28;20029;-67
2022/04/30 06:04:53;;;;;;;20.60;8.05;;;;;;;9.48;100.00;102851.00;5203229;28;20104;-67
2022/04/30 06:07:24;;;;;;;13.93;6.93;;;;;;;10.08;100.00;102850.16;5202937;28;20041;-68
2022/04/30 06:09:54;;;;;;;14.57;7.97;;;;;;;10.38;100.00;102859.59;5203418;28;20049;-68
2022/04/30 06:12:25;;;;;;;12.32;6.55;;;;;;;11.03;100.00;102856.34;5203372;28;20072;-68
2022/04/30 06:14:55;;;;;;;13.68;8.10;;;;;;;11.81;100.00;102852.78;5202674;28;20021;-68
2022/04/30 06:17:26;;;;;;;13.07;7.63;;;;;;;12.52;100.00;102855.84;5203096;28;20053;-68
2022/04/30 06:19:56;;;;;;;14.00;7.03;;;;;;;12.30;100.00;102864.00;5203327;28;20052;-68
2022/04/30 06:22:27;;;;;;;17.27;7.80;;;;;;;11.80;100.00;102860.97;5203327;28;20037;-68
2022/04/30 06:24:57;;;;;;;16.80;7.85;;;;;;;12.35;100.00;102865.34;5203019;28;20049;-68
2022/04/30 06:27:28;;;;;;;15.02;7.47;;;;;;;12.29;100.00;102865.84;5204322;28;20368;-68
2022/04/30 06:29:59;;;;;;;18.15;7.70;;;;;;;12.92;100.00;102871.28;5206459;28;20454;-68
2022/04/30 06:32:29;;;;;;;15.27;7.72;;;;;;;12.91;100.00;102872.28;5206769;28;20033;-68
2022/04/30 06:35:02;;;;;;;21.77;8.45;;;;;;;13.26;100.00;102871.94;5206570;28;20060;-68
2022/04/30 06:37:32;;;;;;;16.70;7.22;;;;;;;13.01;100.00;102870.50;5200212;28;20026;-68
2022/04/30 06:40:05;;;;;;;13.20;7.43;;;;;;;13.07;100.00;102867.25;5195571;28;20112;-68
2022/04/30 06:42:51;;;;;;;14.10;7.53;;;;;;;13.03;100.00;102873.91;5206246;28;20025;-68
2022/04/30 06:45:21;;;;;;;18.45;8.27;;;;;;;13.17;100.00;102873.56;5206729;28;20033;-68
2022/04/30 06:47:52;;;;;;;11.98;6.57;;;;;;;13.90;100.00;102874.25;5206681;28;20379;-68
2022/04/30 06:50:22;;;;;;;15.25;7.55;;;;;;;13.78;100.00;102872.69;5206349;28;20482;-68
2022/04/30 06:58:41;;;;;;;12.77;6.97;;;;;;;15.07;100.00;102866.16;5206266;28;20390;-68
2022/04/30 07:06:47;;;;;;;10.93;5.95;;;;;;;13.08;100.00;102860.88;5206197;28;20088;-68
2022/04/30 07:09:18;;;;;;;16.50;6.55;;;;;;;12.86;100.00;102864.59;5206011;28;20037;-68
2022/04/30 07:11:48;;;;;;;12.98;6.38;;;;;;;13.31;100.00;102866.16;5205666;28;20030;-68
2022/04/30 07:14:19;;;;;;;12.63;5.88;;;;;;;12.72;100.00;102864.06;5205800;28;20460;-68
2022/04/30 07:16:49;;;;;;;14.52;6.38;;;;;;;12.92;100.00;102861.38;5206066;28;20083;-68
2022/04/30 07:19:20;;;;;;;9.15;6.40;;;;;;;13.86;100.00;102859.38;5206113;28;20026;-68
2022/04/30 07:21:50;;;;;;;11.95;5.63;;;;;;;14.76;100.00;102869.94;5205796;28;20477;-68
2022/04/30 07:24:20;;;;;;;10.85;5.78;;;;;;;14.84;100.00;102871.03;5205396;28;20033;-69
2022/04/30 07:26:51;;;;;;;9.27;5.38;;;;;;;15.02;100.00;102863.91;5205600;28;20033;-69
2022/04/30 07:29:21;;;;;;;16.08;5.93;;;;;;;15.09;100.00;102870.41;5205810;28;20280;-69
2022/04/30 07:31:52;;;;;;;18.40;5.28;;;;;;;14.26;100.00;102863.81;5205707;28;20025;-68
2022/04/30 07:34:23;;;;;;;8.73;5.68;;;;;;;13.60;100.00;102861.69;5205937;28;20510;-68
2022/04/30 07:36:53;;;;;;;13.93;6.45;;;;;;;13.84;100.00;102869.44;5203080;28;20029;-68
2022/04/30 07:39:24;;;;;;;16.35;6.57;;;;;;;13.40;100.00;102865.31;5189324;28;20051;-68
2022/04/30 07:41:54;;;;;;;9.43;6.10;;;;;;;12.83;100.00;102870.22;5205723;28;20030;-68
2022/04/30 07:44:26;;;;;;;14.90;6.88;;;;;;;12.90;100.00;102865.16;5205038;28;20029;-68
2022/04/30 07:46:58;;;;;;;11.65;5.97;;;;;;;12.24;100.00;102865.38;5205781;28;20463;-69
2022/04/30 07:49:28;;;;;;;11.77;5.65;;;;;;;11.79;100.00;102867.31;5205107;28;20618;-68
2022/04/30 07:51:59;;;;;;;9.55;5.13;;;;;;;11.62;100.00;102858.78;5204100;28;20030;-68
2022/04/30 07:54:29;;;;;;;10.05;5.43;;;;;;;11.42;100.00;102859.53;5205029;28;20021;-68
2022/04/30 07:57:00;;;;;;;12.15;5.22;;;;;;;11.12;100.00;102869.06;5204945;28;20036;-68
2022/04/30 07:59:30;;;;;;;12.30;5.93;;;;;;;10.70;100.00;102870.56;5205019;28;20108;-68
2022/04/30 08:02:01;;;;;;;11.15;5.68;;;;;;;10.39;100.00;102863.97;5204713;28;20067;-68
2022/04/30 08:04:31;;;;;;;11.68;6.13;;;;;;;10.43;100.00;102860.09;5204865;28;20047;-68
2022/04/30 08:07:02;;;;;;;10.77;5.18;;;;;;;10.34;100.00;102855.41;5204861;28;20554;-68
2022/04/30 08:09:32;;;;;;;12.10;6.00;;;;;;;10.26;100.00;102858.69;5204973;28;20364;-68
2022/04/30 08:12:03;;;;;;;12.13;5.88;;;;;;;10.08;100.00;102863.56;5204699;28;20026;-68
2022/04/30 08:14:34;;;;;;;11.40;6.20;;;;;;;10.17;100.00;102858.50;5204597;28;20128;-68
2022/04/30 08:17:05;;;;;;;11.63;5.82;;;;;;;11.28;100.00;102851.72;5204834;28;20033;-68
2022/04/30 08:19:35;;;;;;;13.65;6.10;;;;;;;12.79;100.00;102851.78;5204612;28;20028;-68
2022/04/30 08:22:06;;;;;;;10.13;6.25;;;;;;;13.60;100.00;102852.75;5204640;28;20029;-68
2022/04/30 08:24:36;;;;;;;11.07;6.03;;;;;;;13.91;100.00;102857.09;5204394;28;20436;-68
2022/04/30 08:27:07;;;;;;;7.78;5.82;;;;;;;14.13;100.00;102852.44;5204456;28;20033;-68
2022/04/30 08:29:38;;;;;;;10.27;6.25;;;;;;;14.88;100.00;102858.94;5204724;28;20017;-68
2022/04/30 08:32:08;;;;;;;10.00;6.05;;;;;;;14.77;100.00;102860.81;5204504;28;20433;-69
2022/04/30 08:34:39;;;;;;;11.05;5.43;;;;;;;15.47;95.93;102852.34;5204058;28;20026;-69
2022/04/30 08:37:10;;;;;;;7.72;4.95;;;;;;;15.94;90.68;102853.09;5201964;28;20017;-69
2022/04/30 08:39:40;;;;;;;9.90;4.72;;;;;;;15.47;90.57;102858.59;5189633;28;20040;-69
2022/04/30 08:42:13;;;;;;;11.23;4.63;;;;;;;15.58;87.67;102849.44;5204450;28;20059;-69
2022/04/30 08:44:43;;;;;;;8.32;5.20;;;;;;;15.85;88.86;102851.28;5204132;28;20056;-69
2022/04/30 08:47:14;;;;;;;9.90;5.78;;;;;;;16.66;87.57;102850.34;5204188;28;20493;-69
2022/04/30 08:49:44;;;;;;;9.75;5.78;;;;;;;16.73;82.86;102846.91;5203512;28;20025;-69
2022/04/30 08:52:15;;;;;;;13.15;6.63;;;;;;;15.93;82.87;102853.25;5204170;28;20025;-69
2022/04/30 08:54:45;;;;;;;18.25;7.57;;;;;;;15.52;86.31;102842.78;5203927;28;20060;-69
2022/04/30 08:57:16;;;;;;;11.57;6.63;;;;;;;15.46;83.33;102845.22;5204043;28;20053;-68
2022/04/30 08:59:46;;;;;;;9.23;7.25;;;;;;;14.41;93.68;102848.03;5204326;28;20060;-68
2022/04/30 09:02:17;;;;;;;11.98;7.18;;;;;;;13.69;100.00;102844.69;5203498;28;20033;-69
2022/04/30 09:04:48;;;;;;;12.75;7.43;;;;;;;13.38;100.00;102843.03;5203809;28;20108;-68
2022/04/30 09:07:21;;;;;;;13.52;6.63;;;;;;;13.20;100.00;102834.69;5203792;28;20367;-68
2022/04/30 09:09:55;;;;;;;12.57;6.70;;;;;;;13.28;100.00;102832.22;5203762;28;20029;-70
2022/04/30 09:12:29;;;;;;;9.50;6.22;;;;;;;13.44;100.00;102829.00;5203892;28;20025;-68
2022/04/30 09:15:00;;;;;;;12.80;6.93;;;;;;;13.73;100.00;102827.22;5203503;28;20024;-68
2022/04/30 09:17:33;;;;;;;14.10;7.10;;;;;;;15.08;100.00;102830.88;5204069;28;20025;-68
2022/04/30 09:20:04;;;;;;;8.65;5.45;;;;;;;15.92;90.65;102819.91;5203974;28;20110;-68
2022/04/30 09:22:37;;;;;;;8.95;5.10;;;;;;;15.84;87.65;102821.69;5204596;28;20030;-69
2022/04/30 09:25:15;;;;;;;12.00;5.45;;;;;;;15.67;84.25;102816.09;5203170;28;20036;-68
2022/04/30 09:27:51;;;;;;;8.00;4.70;;;;;;;15.00;84.25;102814.53;5203613;28;20036;-68
2022/04/30 09:30:26;;;;;;;8.18;4.85;;;;;;;14.57;88.88;102821.34;5203927;28;20082;-68
2022/04/30 09:33:12;;;;;;;10.57;4.93;;;;;;;14.04;100.00;102802.00;5203629;28;20045;-68
2022/04/30 09:38:48;;;;;;;9.35;5.32;;;;;;;13.98;100.00;102806.97;5191722;28;20022;-68
2022/04/30 09:41:39;;;;;;;8.80;4.22;;;;;;;13.65;100.00;102802.78;5202325;28;20380;-68
2022/04/30 09:44:12;;;;;;;7.65;4.70;;;;;;;13.46;100.00;102808.16;5203388;28;20056;-68
2022/04/30 09:46:43;;;;;;;9.48;4.90;;;;;;;13.35;100.00;102806.41;5203758;28;20032;-68
2022/04/30 09:54:52;;;;;;;9.93;5.50;;;;;;;13.23;100.00;102801.25;5203497;28;20025;-68
2022/04/30 09:57:22;;;;;;;8.45;4.78;;;;;;;13.50;100.00;102798.78;5203469;28;20367;-68
2022/04/30 09:59:56;;;;;;;17.00;5.35;;;;;;;13.65;100.00;102802.78;5203509;28;20036;-68
2022/04/30 10:02:28;;;;;;;11.93;5.68;;;;;;;13.62;100.00;102800.38;5204414;28;20568;-68
2022/04/30 10:05:02;;;;;;;10.82;5.25;;;;;;;13.96;100.00;102797.31;5206951;28;20111;-68
2022/04/30 10:07:33;;;;;;;10.75;4.53;;;;;;;14.27;98.96;102787.22;5207279;28;20394;-69
2022/04/30 10:10:27;;;;;;;8.15;5.10;;;;;;;14.04;100.00;102785.81;5207442;28;20478;-68
2022/04/30 10:13:09;;;;;;;8.13;4.70;;;;;;;13.83;100.00;102780.53;5206932;28;20040;-68
2022/04/30 10:15:53;;;;;;;6.57;4.40;;;;;;;13.76;97.24;102782.97;5206664;28;20068;-68
2022/04/30 10:18:34;;;;;;;9.00;4.60;;;;;;;13.60;98.08;102791.56;5207047;28;20044;-68
2022/04/30 10:21:16;;;;;;;10.40;4.57;;;;;;;13.04;93.79;102785.84;5206771;28;20026;-68
2022/04/30 10:23:47;;;;;;;5.90;4.00;;;;;;;12.91;98.27;102784.22;5195265;28;20053;-68
2022/04/30 10:26:17;;;;;;;10.02;4.57;;;;;;;12.89;100.00;102782.66;5206932;28;20116;-68
2022/04/30 10:28:58;;;;;;;11.98;4.88;;;;;;;12.90;100.00;102781.66;5206911;28;20027;-68
2022/04/30 10:31:29;;;;;;;10.07;4.13;;;;;;;13.06;100.00;102784.72;5206798;28;20120;-68
2022/04/30 10:33:59;;;;;;;9.80;4.80;;;;;;;13.15;100.00;102778.53;5206457;28;20037;-68
2022/04/30 10:36:36;;;;;;;7.80;4.80;;;;;;;13.43;98.09;102773.38;5205185;28;20040;-68
2022/04/30 10:39:18;;;;;;;10.05;4.95;;;;;;;13.21;97.45;102769.91;5206464;28;20052;-68
2022/04/30 10:41:50;;;;;;;12.63;5.75;;;;;;;12.94;100.00;102775.84;5206737;28;20021;-68
2022/04/30 10:44:39;;;;;;;12.57;5.78;;;;;;;12.92;100.00;102777.00;5206052;28;20033;-68
2022/04/30 10:47:13;;;;;;;14.23;5.30;;;;;;;13.26;100.00;102764.13;5206332;28;20033;-68
2022/04/30 10:49:44;;;;;;;10.40;5.43;;;;;;;13.21;87.70;102759.13;5206492;28;20136;-68
2022/04/30 10:52:21;;;;;;;8.27;5.28;;;;;;;13.19;94.28;102754.81;5206274;28;20718;-68
2022/04/30 10:54:54;;;;;;;12.43;5.38;;;;;;;13.21;94.80;102759.13;5205954;28;20297;-68
2022/04/30 10:57:25;;;;;;;12.70;6.10;;;;;;;13.43;91.34;102759.91;5206167;28;20039;-68
2022/04/30 10:59:58;;;;;;;12.35;6.07;;;;;;;13.63;100.00;102755.41;5206379;28;20154;-68
2022/04/30 11:02:31;;;;;;;9.02;6.10;;;;;;;14.07;88.92;102764.78;5206100;28;20092;-68
2022/04/30 11:05:01;;;;;;;9.93;6.25;;;;;;;14.41;86.02;102754.38;5205657;28;20025;-68
2022/04/30 11:07:32;;;;;;;12.93;6.13;;;;;;;14.40;86.01;102749.97;5206133;28;20390;-69
2022/04/30 11:10:06;;;;;;;8.25;6.18;;;;;;;14.15;83.30;102750.56;5205945;28;20033;-68
2022/04/30 11:12:37;;;;;;;11.52;7.18;;;;;;;13.93;90.82;102749.03;5206060;28;20029;-68
2022/04/30 11:15:09;;;;;;;10.90;6.10;;;;;;;14.12;92.19;102750.88;5205501;28;20028;-68
2022/04/30 11:17:43;;;;;;;10.55;6.20;;;;;;;14.46;91.25;102756.66;5205773;28;20017;-68
2022/04/30 11:20:32;;;;;;;13.23;6.93;;;;;;;14.59;83.37;102746.41;5205811;28;20560;-68
2022/04/30 11:23:02;;;;;;;22.02;6.43;;;;;;;14.56;86.21;102743.13;5205704;28;20060;-68
2022/04/30 11:25:52;;;;;;;10.98;6.43;;;;;;;14.43;98.41;102736.19;5205656;28;20056;-68
2022/04/30 11:28:41;;;;;;;9.80;6.15;;;;;;;14.32;95.46;102730.09;5205456;28;20044;-69
2022/04/30 11:31:18;;;;;;;10.73;6.63;;;;;;;15.27;88.96;102722.63;5205421;28;20033;-68
2022/04/30 11:33:49;;;;;;;12.23;6.28;;;;;;;15.24;82.36;102717.53;5205739;28;20504;-68
2022/04/30 11:36:20;;;;;;;9.75;5.72;;;;;;;14.82;80.05;102708.22;5205376;28;20120;-68
2022/04/30 11:38:51;;;;;;;11.48;5.45;;;;;;;14.76;76.46;102705.13;5191231;28;20026;-68
2022/04/30 11:41:22;;;;;;;10.18;5.72;;;;;;;15.12;77.04;102701.69;5204728;28;20030;-68
2022/04/30 11:44:08;;;;;;;12.18;6.20;;;;;;;15.40;78.31;102705.19;5205426;28;20040;-69
2022/04/30 11:46:40;;;;;;;10.75;6.15;;;;;;;15.85;82.99;102696.19;5205130;28;20083;-69
2022/04/30 11:49:13;;;;;;;9.52;5.28;;;;;;;15.91;73.79;102701.81;5204099;28;20032;-69
2022/04/30 11:51:45;;;;;;;8.65;5.18;;;;;;;15.80;75.71;102688.53;5205535;28;20041;-69
2022/04/30 11:54:18;;;;;;;9.52;4.90;;;;;;;15.10;73.34;102693.69;5204965;28;20021;-68
2022/04/30 11:56:49;;;;;;;11.05;5.10;;;;;;;14.75;76.84;102694.44;5205295;28;20025;-68
2022/04/30 11:59:37;;;;;;;8.93;4.85;;;;;;;14.20;79.25;102687.06;5204855;28;20129;-68
2022/04/30 12:02:10;;;;;;;10.38;4.43;;;;;;;13.95;77.82;102696.59;5204838;28;20025;-68
2022/04/30 12:04:41;;;;;;;11.88;5.38;;;;;;;13.77;81.36;102698.34;5204723;28;20590;-68
2022/04/30 12:07:13;;;;;;;9.90;4.65;;;;;;;13.47;82.94;102696.63;5204809;28;20157;-68
2022/04/30 12:09:47;;;;;;;10.57;5.13;;;;;;;13.64;93.65;102695.91;5204531;28;20136;-68
2022/04/30 12:12:19;;;;;;;8.10;5.25;;;;;;;13.88;84.01;102687.41;5204971;28;20025;-69
2022/04/30 12:14:52;;;;;;;8.07;5.30;;;;;;;13.82;90.45;102679.03;5204344;28;20018;-68
2022/04/30 12:17:40;;;;;;;10.63;5.20;;;;;;;14.09;83.24;102681.81;5205280;28;20032;-68
2022/04/30 12:26:03;;;;;;;9.40;5.78;;;;;;;15.10;80.79;102665.81;5203859;28;20033;-68
2022/04/30 12:28:46;;;;;;;10.90;5.10;;;;;;;15.36;79.41;102669.50;5204104;28;20035;-69